Time;durP1;ratioP1;P1;durP2;ratioP2;P2;SDS_P1;SDS_P2;PMS_P1;PMS_P2;Temp;Humidity;BMP_temperature;BMP_pressure;BME280_temperature;BME280_humidity;BME280_pressure;Samples;Min_cycle;Max_cycle;Signal;HPM_P1;HPM_P2
2021/05/24 00:01:06;;;;;;;6.28;2.13;;;12.60;99.90;;;;;;5094885;28;20207;-68
2021/05/24 00:03:33;;;;;;;4.80;2.15;;;12.50;99.90;;;;;;5094410;28;20204;-68
2021/05/24 00:05:59;;;;;;;4.07;1.85;;;12.50;99.90;;;;;;5094408;28;20201;-67
2021/05/24 00:08:27;;;;;;;3.08;2.08;;;12.50;99.90;;;;;;5094218;28;20229;-67
2021/05/24 00:10:54;;;;;;;2.28;1.60;;;12.50;99.90;;;;;;5094507;28;20209;-67
2021/05/24 00:13:22;;;;;;;3.65;2.17;;;12.50;99.90;;;;;;5094294;28;20206;-67
2021/05/24 00:15:50;;;;;;;5.72;2.58;;;12.40;99.90;;;;;;5094187;28;20584;-67
2021/05/24 00:18:17;;;;;;;2.47;1.73;;;12.30;99.90;;;;;;5094216;28;20201;-67
2021/05/24 00:20:46;;;;;;;2.92;2.13;;;12.40;99.90;;;;;;5094063;28;20201;-67
2021/05/24 00:23:13;;;;;;;3.63;2.03;;;12.40;99.90;;;;;;5094063;28;20206;-68
2021/05/24 00:25:40;;;;;;;3.83;2.78;;;12.40;99.90;;;;;;5094113;28;20205;-67
2021/05/24 00:28:11;;;;;;;2.25;1.58;;;12.40;99.90;;;;;;5094291;28;20241;-67
2021/05/24 00:30:38;;;;;;;4.33;2.70;;;12.40;99.90;;;;;;5093820;28;20575;-67
2021/05/24 00:33:06;;;;;;;5.45;2.22;;;12.40;99.90;;;;;;5093939;28;20205;-68
2021/05/24 00:35:32;;;;;;;5.07;2.55;;;12.40;99.90;;;;;;5093827;28;20202;-68
2021/05/24 00:38:01;;;;;;;3.83;2.50;;;12.30;99.90;;;;;;5094040;28;20201;-68
2021/05/24 00:40:27;;;;;;;2.47;1.70;;;12.20;99.90;;;;;;5094114;28;20202;-67
2021/05/24 00:42:55;;;;;;;2.63;2.42;;;12.20;99.90;;;;;;5093784;28;20202;-67
2021/05/24 00:45:22;;;;;;;2.90;2.23;;;12.20;99.90;;;;;;5093695;28;20206;-67
2021/05/24 00:47:49;;;;;;;5.38;1.98;;;12.10;99.90;;;;;;5093389;28;20236;-67
2021/05/24 00:50:16;;;;;;;4.15;2.42;;;12.10;99.90;;;;;;5093537;28;20209;-68
2021/05/24 00:52:42;;;;;;;3.17;2.10;;;12.10;99.90;;;;;;5093639;28;20235;-67
2021/05/24 00:55:11;;;;;;;5.18;2.75;;;12.10;99.90;;;;;;5093932;28;20197;-68
2021/05/24 00:57:39;;;;;;;5.97;3.42;;;12.20;99.90;;;;;;5093633;28;20197;-67
2021/05/24 01:00:09;;;;;;;6.88;4.55;;;12.20;99.90;;;;;;5093489;28;20246;-67
2021/05/24 01:02:35;;;;;;;6.90;5.18;;;12.20;99.90;;;;;;5093198;28;20786;-67
2021/05/24 01:05:02;;;;;;;9.43;7.00;;;12.10;99.90;;;;;;5093434;28;20206;-67
2021/05/24 01:07:28;;;;;;;10.43;7.63;;;12.00;99.90;;;;;;5093389;28;20233;-67
2021/05/24 01:09:55;;;;;;;12.47;7.37;;;11.80;99.90;;;;;;5093123;28;20579;-67
2021/05/24 01:12:22;;;;;;;11.20;7.27;;;11.50;99.90;;;;;;5093050;28;20206;-67
2021/05/24 01:14:48;;;;;;;7.90;5.10;;;11.50;99.90;;;;;;5093132;28;20208;-68
2021/05/24 01:17:15;;;;;;;7.57;4.50;;;11.50;99.90;;;;;;5092952;28;20206;-68
2021/05/24 01:19:48;;;;;;;4.77;2.87;;;11.60;99.90;;;;;;5093213;28;20685;-70
2021/05/24 01:22:19;;;;;;;5.73;3.20;;;11.60;99.90;;;;;;5093240;28;20201;-70
2021/05/24 01:24:46;;;;;;;6.90;2.80;;;11.70;99.90;;;;;;5092690;28;20205;-70
2021/05/24 01:27:13;;;;;;;5.93;3.50;;;11.60;99.90;;;;;;5093134;28;20226;-70
2021/05/24 01:29:40;;;;;;;9.00;3.90;;;11.60;99.90;;;;;;5092991;28;20727;-70
2021/05/24 01:32:07;;;;;;;9.37;3.97;;;11.50;99.90;;;;;;5092938;28;20231;-70
2021/05/24 01:34:35;;;;;;;9.17;4.53;;;11.40;99.90;;;;;;5092911;28;20606;-70
2021/05/24 01:37:02;;;;;;;5.20;3.93;;;11.20;99.90;;;;;;5092783;28;20205;-70
2021/05/24 01:39:30;;;;;;;9.20;4.73;;;11.10;99.90;;;;;;5092551;28;20197;-70
2021/05/24 01:41:56;;;;;;;7.43;3.77;;;11.10;99.90;;;;;;5091718;28;20616;-70
2021/05/24 01:44:28;;;;;;;4.53;3.70;;;11.10;99.90;;;;;;5092559;28;20205;-69
2021/05/24 01:46:55;;;;;;;7.73;4.27;;;11.10;99.90;;;;;;5092335;28;20702;-70
2021/05/24 01:49:21;;;;;;;6.07;3.40;;;11.00;99.90;;;;;;5092563;28;20279;-70
2021/05/24 01:51:48;;;;;;;6.27;3.67;;;11.00;99.90;;;;;;5092479;28;20231;-70
2021/05/24 01:54:14;;;;;;;11.17;3.80;;;11.10;99.90;;;;;;5092791;28;20213;-70
2021/05/24 01:56:42;;;;;;;6.77;3.77;;;11.00;99.90;;;;;;5092466;28;20205;-70
2021/05/24 01:59:09;;;;;;;5.43;3.40;;;10.90;99.90;;;;;;5092274;28;20209;-70
2021/05/24 02:01:36;;;;;;;9.67;3.27;;;10.90;99.90;;;;;;5092414;28;20208;-71
2021/05/24 02:04:04;;;;;;;4.80;3.23;;;10.90;99.90;;;;;;5092230;28;20202;-70
2021/05/24 02:06:31;;;;;;;5.60;2.90;;;10.90;99.90;;;;;;5092122;28;20679;-70
2021/05/24 02:08:58;;;;;;;7.47;4.57;;;10.80;99.90;;;;;;5092112;28;20233;-71
2021/05/24 02:11:24;;;;;;;5.37;3.07;;;10.80;99.90;;;;;;5092034;28;20205;-70
2021/05/24 02:13:52;;;;;;;4.23;2.60;;;10.70;99.90;;;;;;5092281;28;20209;-70
2021/05/24 02:16:27;;;;;;;2.83;2.30;;;10.60;99.90;;;;;;5091990;28;20688;-70
2021/05/24 02:18:53;;;;;;;4.07;2.30;;;10.40;99.90;;;;;;5092021;28;20201;-70
2021/05/24 02:21:20;;;;;;;3.43;2.13;;;10.60;99.90;;;;;;5091981;28;20201;-70
2021/05/24 02:23:46;;;;;;;7.20;2.60;;;10.70;99.90;;;;;;5091998;28;20204;-70
2021/05/24 02:26:13;;;;;;;5.67;1.90;;;10.70;99.90;;;;;;5092345;28;20205;-70
2021/05/24 02:28:39;;;;;;;9.13;2.27;;;10.70;99.90;;;;;;5091993;28;20229;-70
2021/05/24 02:31:06;;;;;;;5.27;2.47;;;10.70;99.90;;;;;;5091942;28;20201;-70
2021/05/24 02:33:33;;;;;;;8.40;2.80;;;10.70;99.90;;;;;;5091876;28;20208;-71
2021/05/24 02:35:59;;;;;;;2.53;1.87;;;10.70;99.90;;;;;;5091764;28;20239;-70
2021/05/24 02:38:26;;;;;;;4.37;2.03;;;10.50;99.90;;;;;;5091807;28;20251;-69
2021/05/24 02:40:53;;;;;;;3.20;1.80;;;10.50;99.90;;;;;;5091675;28;20613;-70
2021/05/24 02:43:20;;;;;;;5.70;1.87;;;10.50;99.90;;;;;;5091827;28;20676;-70
2021/05/24 02:45:47;;;;;;;5.17;2.40;;;10.40;99.90;;;;;;5091969;28;20205;-70
2021/05/24 02:48:15;;;;;;;3.27;2.17;;;10.40;99.90;;;;;;5091918;28;20599;-70
2021/05/24 02:50:41;;;;;;;4.43;2.10;;;10.50;99.90;;;;;;5091700;28;20232;-70
2021/05/24 02:53:08;;;;;;;2.33;2.00;;;10.50;99.90;;;;;;5094433;28;20205;-71
2021/05/24 02:55:35;;;;;;;3.47;1.50;;;10.40;99.90;;;;;;5095745;28;20201;-70
2021/05/24 02:58:01;;;;;;;4.30;2.37;;;10.40;99.90;;;;;;5095872;28;20198;-70
2021/05/24 03:00:28;;;;;;;4.10;1.70;;;10.40;99.90;;;;;;5095761;28;20243;-70
2021/05/24 03:02:56;;;;;;;2.93;2.10;;;10.30;99.90;;;;;;5095717;28;20209;-70
2021/05/24 03:05:24;;;;;;;3.53;1.63;;;10.40;99.90;;;;;;5095522;28;20237;-70
2021/05/24 03:07:52;;;;;;;5.30;2.40;;;10.40;99.90;;;;;;5095668;28;20333;-70
2021/05/24 03:10:21;;;;;;;2.43;1.67;;;10.30;99.90;;;;;;5096015;28;20201;-70
2021/05/24 03:12:48;;;;;;;5.40;2.93;;;10.20;99.90;;;;;;5095838;28;20197;-71
2021/05/24 03:15:16;;;;;;;2.23;1.80;;;10.10;99.90;;;;;;5095837;28;20201;-70
2021/05/24 03:17:43;;;;;;;3.33;2.07;;;10.20;99.90;;;;;;5095374;28;20213;-70
2021/05/24 03:20:11;;;;;;;3.37;2.20;;;10.20;99.90;;;;;;5095194;28;20209;-70
2021/05/24 03:22:40;;;;;;;3.30;2.00;;;10.20;99.90;;;;;;5095163;28;20719;-70
2021/05/24 03:25:08;;;;;;;3.30;2.50;;;10.20;99.90;;;;;;5095185;28;20213;-70
2021/05/24 03:27:35;;;;;;;4.00;2.57;;;10.20;99.90;;;;;;5095025;28;20720;-70
2021/05/24 03:30:01;;;;;;;4.43;2.27;;;10.10;99.90;;;;;;5095212;28;20662;-70
2021/05/24 03:32:28;;;;;;;4.97;2.57;;;10.10;99.90;;;;;;5094925;28;20206;-70
2021/05/24 03:34:54;;;;;;;5.80;2.60;;;10.00;99.90;;;;;;5094970;28;20254;-70
2021/05/24 03:37:21;;;;;;;3.23;2.07;;;9.90;99.90;;;;;;5094844;28;20549;-71
2021/05/24 03:39:48;;;;;;;7.70;2.20;;;9.80;99.90;;;;;;5095223;28;20722;-70
2021/05/24 03:42:15;;;;;;;3.43;2.60;;;9.90;99.90;;;;;;5095005;28;20231;-70
2021/05/24 03:44:43;;;;;;;3.20;2.40;;;10.00;99.90;;;;;;5094824;28;20678;-70
2021/05/24 03:47:10;;;;;;;3.30;2.50;;;10.10;99.90;;;;;;5094609;28;20721;-70
2021/05/24 03:49:37;;;;;;;7.10;3.27;;;10.10;99.90;;;;;;5094925;28;20202;-70
2021/05/24 03:52:05;;;;;;;3.30;2.47;;;9.80;99.90;;;;;;5094812;28;20224;-70
2021/05/24 03:54:31;;;;;;;4.17;3.00;;;9.70;99.90;;;;;;5094712;28;20608;-70
2021/05/24 03:56:58;;;;;;;6.27;3.03;;;9.60;99.90;;;;;;5094771;28;20201;-70
2021/05/24 03:59:25;;;;;;;5.57;3.10;;;9.70;99.90;;;;;;5094568;28;20613;-70
2021/05/24 04:01:51;;;;;;;6.70;2.67;;;9.50;99.90;;;;;;5094682;28;20228;-70
2021/05/24 04:04:18;;;;;;;6.73;3.20;;;9.40;99.90;;;;;;5093987;28;20210;-70
2021/05/24 04:06:51;;;;;;;5.43;3.00;;;9.60;99.90;;;;;;5094436;28;20201;-70
2021/05/24 04:09:17;;;;;;;3.77;2.50;;;9.70;99.90;;;;;;5094587;28;20209;-70
2021/05/24 04:11:43;;;;;;;4.47;2.53;;;9.70;99.90;;;;;;5094421;28;20205;-70
2021/05/24 04:14:11;;;;;;;3.13;2.33;;;9.80;99.90;;;;;;5094191;28;20262;-70
2021/05/24 04:16:37;;;;;;;2.33;1.80;;;9.80;99.90;;;;;;5094198;28;20201;-70
2021/05/24 04:19:07;;;;;;;2.93;1.87;;;9.70;99.90;;;;;;5094392;28;20213;-71
2021/05/24 04:21:34;;;;;;;6.37;3.10;;;9.70;99.90;;;;;;5094067;28;20683;-70
2021/05/24 04:24:00;;;;;;;1.70;1.60;;;9.60;99.90;;;;;;5093954;28;20206;-70
2021/05/24 04:26:27;;;;;;;3.43;2.63;;;9.60;99.90;;;;;;5094149;28;20213;-70
2021/05/24 04:28:53;;;;;;;3.03;2.30;;;9.50;99.90;;;;;;5093856;28;20279;-70
2021/05/24 04:31:21;;;;;;;5.93;2.30;;;9.30;99.90;;;;;;5094029;28;20206;-70
2021/05/24 04:33:48;;;;;;;5.60;2.57;;;9.20;99.90;;;;;;5093751;28;20197;-70
2021/05/24 04:36:14;;;;;;;5.43;4.33;;;9.10;99.90;;;;;;5093799;28;20265;-70
2021/05/24 04:38:41;;;;;;;5.77;2.90;;;9.10;99.90;;;;;;5093471;28;20202;-70
2021/05/24 04:41:08;;;;;;;5.87;2.73;;;9.00;99.90;;;;;;5093266;28;20212;-70
2021/05/24 04:43:36;;;;;;;4.43;3.17;;;9.10;99.90;;;;;;5093307;28;20205;-71
2021/05/24 04:46:03;;;;;;;6.27;3.23;;;9.20;99.90;;;;;;5093222;28;20247;-69
2021/05/24 04:48:30;;;;;;;4.63;3.53;;;9.40;99.90;;;;;;5093135;28;20773;-70
2021/05/24 04:50:57;;;;;;;10.53;3.83;;;9.40;99.90;;;;;;5093198;28;20616;-70
2021/05/24 04:53:23;;;;;;;3.73;2.83;;;9.50;99.90;;;;;;5093649;28;20205;-70
2021/05/24 04:55:50;;;;;;;2.97;2.27;;;9.60;99.90;;;;;;5093369;28;20202;-70
2021/05/24 04:58:16;;;;;;;4.70;2.80;;;9.70;99.90;;;;;;5093325;28;20209;-70
2021/05/24 05:00:43;;;;;;;5.93;3.40;;;9.70;99.90;;;;;;5093361;28;20241;-71
2021/05/24 05:03:09;;;;;;;3.50;2.57;;;9.70;99.90;;;;;;5093459;28;20254;-71
2021/05/24 05:05:37;;;;;;;6.83;3.10;;;9.70;99.90;;;;;;5093343;28;20202;-70
2021/05/24 05:08:04;;;;;;;3.57;2.63;;;9.70;99.90;;;;;;5093149;28;20229;-70
2021/05/24 05:10:30;;;;;;;3.27;1.87;;;9.70;99.90;;;;;;5093154;28;20247;-70
2021/05/24 05:12:56;;;;;;;2.97;2.73;;;9.70;99.90;;;;;;5093191;28;20201;-70
2021/05/24 05:15:23;;;;;;;6.50;3.23;;;9.70;99.90;;;;;;5093429;28;20202;-70
2021/05/24 05:17:49;;;;;;;6.73;2.57;;;9.80;99.90;;;;;;5092991;28;20221;-70
2021/05/24 05:20:16;;;;;;;6.27;2.87;;;9.90;99.90;;;;;;5092962;28;20703;-70
2021/05/24 05:22:43;;;;;;;4.07;2.83;;;10.00;99.90;;;;;;5092896;28;20818;-70
2021/05/24 05:25:11;;;;;;;6.03;3.07;;;10.10;99.90;;;;;;5092905;28;20596;-69
2021/05/24 05:27:38;;;;;;;4.30;2.50;;;10.10;99.90;;;;;;5092948;28;20236;-70
2021/05/24 05:30:07;;;;;;;2.50;2.30;;;10.00;99.90;;;;;;5093014;28;20197;-70
2021/05/24 05:32:33;;;;;;;2.73;1.90;;;10.10;99.90;;;;;;5092800;28;20201;-70
2021/05/24 05:35:00;;;;;;;6.00;2.43;;;10.10;99.90;;;;;;5092799;28;20259;-70
2021/05/24 05:37:26;;;;;;;3.60;2.60;;;10.20;99.90;;;;;;5092894;28;20209;-70
2021/05/24 05:39:55;;;;;;;3.27;2.97;;;10.40;99.90;;;;;;5092828;28;20589;-70
2021/05/24 05:42:22;;;;;;;4.57;2.70;;;10.50;99.90;;;;;;5092584;28;20209;-70
2021/05/24 05:44:49;;;;;;;5.60;2.40;;;10.40;99.90;;;;;;5092715;28;20299;-71
2021/05/24 05:47:16;;;;;;;4.90;3.17;;;10.40;99.90;;;;;;5092613;28;20202;-71
2021/05/24 05:49:47;;;;;;;5.20;3.17;;;10.40;99.90;;;;;;5092638;28;20209;-70
2021/05/24 05:52:16;;;;;;;5.10;2.70;;;10.50;99.90;;;;;;5092310;28;20636;-70
2021/05/24 05:54:42;;;;;;;5.13;2.77;;;10.70;99.90;;;;;;5092591;28;20660;-69
2021/05/24 05:57:10;;;;;;;2.70;2.40;;;10.90;99.90;;;;;;5092578;28;20205;-69
2021/05/24 05:59:36;;;;;;;2.83;2.63;;;11.00;99.90;;;;;;5092298;28;20657;-69
2021/05/24 06:02:03;;;;;;;5.63;2.37;;;11.00;99.90;;;;;;5092308;28;20232;-70
2021/05/24 06:04:29;;;;;;;3.27;2.83;;;11.20;99.90;;;;;;5092314;28;20206;-72
2021/05/24 06:06:56;;;;;;;3.20;2.20;;;11.20;99.90;;;;;;5092551;28;20213;-73
2021/05/24 06:09:22;;;;;;;3.93;2.57;;;11.30;99.90;;;;;;5092013;28;20616;-71
2021/05/24 06:11:51;;;;;;;5.43;3.03;;;11.50;99.90;;;;;;5092120;28;21327;-75
2021/05/24 06:14:19;;;;;;;4.17;2.80;;;11.50;99.90;;;;;;5092206;28;20220;-74
2021/05/24 06:16:47;;;;;;;4.00;3.17;;;11.50;99.90;;;;;;5092057;28;20198;-73
2021/05/24 06:19:13;;;;;;;4.27;3.13;;;11.60;99.90;;;;;;5091882;28;20618;-74
2021/05/24 06:21:40;;;;;;;3.20;2.90;;;11.70;99.90;;;;;;5091940;28;20201;-73
2021/05/24 06:24:07;;;;;;;4.57;3.30;;;11.90;99.90;;;;;;5091917;28;20212;-73
2021/05/24 06:26:34;;;;;;;3.67;2.50;;;12.00;99.90;;;;;;5091362;28;20206;-70
2021/05/24 06:29:00;;;;;;;7.70;3.23;;;12.20;99.90;;;;;;5091787;28;20233;-73
2021/05/24 06:31:28;;;;;;;3.70;2.93;;;12.20;99.90;;;;;;5092198;28;20559;-74
2021/05/24 06:33:54;;;;;;;2.93;2.40;;;12.10;99.90;;;;;;5091947;28;20243;-73
2021/05/24 06:36:21;;;;;;;5.37;3.03;;;12.30;99.90;;;;;;5091752;28;20206;-74
2021/05/24 06:38:47;;;;;;;3.10;2.80;;;12.30;99.90;;;;;;5091926;28;20197;-74
2021/05/24 06:41:14;;;;;;;4.47;3.10;;;12.40;99.90;;;;;;5092015;28;20205;-74
2021/05/24 06:43:41;;;;;;;4.20;3.23;;;12.70;99.90;;;;;;5091854;28;20208;-74
2021/05/24 06:46:07;;;;;;;3.17;2.07;;;13.10;99.90;;;;;;5091703;28;20201;-74
2021/05/24 06:48:34;;;;;;;5.73;3.30;;;13.90;99.90;;;;;;5091541;28;20237;-73
2021/05/24 06:51:01;;;;;;;4.07;2.03;;;13.50;99.90;;;;;;5091950;28;20210;-71
2021/05/24 06:53:28;;;;;;;4.13;2.37;;;13.00;99.90;;;;;;5092060;28;20265;-71
2021/05/24 06:55:54;;;;;;;3.93;2.13;;;13.20;99.90;;;;;;5091741;28;20209;-74
2021/05/24 06:58:21;;;;;;;3.57;3.20;;;13.30;99.90;;;;;;5091528;28;20198;-74
2021/05/24 07:00:47;;;;;;;3.67;2.47;;;13.40;99.90;;;;;;5091623;28;20219;-74
2021/05/24 07:03:14;;;;;;;4.97;3.50;;;13.50;99.90;;;;;;5091464;28;20209;-73
2021/05/24 07:05:41;;;;;;;2.47;2.10;;;13.60;99.90;;;;;;5091457;28;20590;-73
2021/05/24 07:08:08;;;;;;;4.68;2.20;;;13.70;99.90;;;;;;5091359;28;20229;-71
2021/05/24 07:10:34;;;;;;;2.88;1.98;;;13.90;99.90;;;;;;5091465;28;20669;-73
2021/05/24 07:13:01;;;;;;;6.75;2.58;;;14.10;99.90;;;;;;5091893;28;20559;-74
2021/05/24 07:15:28;;;;;;;1.65;1.55;;;14.20;99.90;;;;;;5091623;28;20202;-74
2021/05/24 07:17:55;;;;;;;3.00;1.50;;;14.30;99.90;;;;;;5091665;28;20209;-72
2021/05/24 07:20:22;;;;;;;3.50;2.00;;;14.50;99.90;;;;;;5091577;28;20204;-75
2021/05/24 07:22:49;;;;;;;1.60;1.50;;;15.00;99.90;;;;;;5091563;28;20206;-73
2021/05/24 07:25:16;;;;;;;7.78;1.60;;;15.80;99.90;;;;;;5091305;28;20232;-74
2021/05/24 07:27:43;;;;;;;3.17;1.40;;;16.30;99.90;;;;;;5091233;28;20244;-68
2021/05/24 07:30:10;;;;;;;5.88;1.90;;;16.30;99.90;;;;;;5091095;28;20232;-68
2021/05/24 07:32:37;;;;;;;3.20;1.20;;;16.20;99.90;;;;;;5091184;28;20561;-68
2021/05/24 07:35:05;;;;;;;1.67;1.20;;;16.20;99.90;;;;;;5091369;28;20201;-68
2021/05/24 07:37:31;;;;;;;2.40;1.20;;;16.40;99.90;;;;;;5091599;28;20217;-69
2021/05/24 07:39:58;;;;;;;5.13;1.42;;;16.60;99.90;;;;;;5093748;28;20208;-68
2021/05/24 07:42:25;;;;;;;3.85;1.48;;;16.60;99.90;;;;;;5094958;28;20209;-67
2021/05/24 07:44:52;;;;;;;1.75;1.30;;;16.30;99.90;;;;;;5095112;28;20224;-68
2021/05/24 07:47:18;;;;;;;3.47;1.63;;;16.20;99.90;;;;;;5094914;28;20231;-70
2021/05/24 07:49:46;;;;;;;3.63;1.65;;;16.30;99.90;;;;;;5095025;28;20205;-71
2021/05/24 07:52:12;;;;;;;2.53;1.83;;;16.50;99.90;;;;;;5094799;28;20568;-70
2021/05/24 07:54:39;;;;;;;2.95;1.33;;;16.50;99.90;;;;;;5094782;28;20205;-71
2021/05/24 07:57:07;;;;;;;2.03;1.40;;;16.10;99.90;;;;;;5094443;28;20599;-70
2021/05/24 07:59:34;;;;;;;2.67;1.90;;;17.50;99.90;;;;;;5095111;28;20205;-71
2021/05/24 08:02:02;;;;;;;3.75;1.80;;;19.90;99.90;;;;;;5095032;28;20668;-70
2021/05/24 08:04:29;;;;;;;2.75;1.70;;;21.80;99.90;;;;;;5094535;28;20246;-70
2021/05/24 08:06:56;;;;;;;4.05;2.13;;;22.10;99.90;;;;;;5094472;28;20210;-70
2021/05/24 08:09:23;;;;;;;3.08;1.45;;;24.40;99.90;;;;;;5094464;28;20642;-72
2021/05/24 08:11:49;;;;;;;2.38;1.33;;;22.90;99.90;;;;;;5094268;28;20205;-71
2021/05/24 08:14:17;;;;;;;2.65;1.35;;;23.60;99.90;;;;;;5094293;28;20213;-71
2021/05/24 08:16:44;;;;;;;2.97;1.05;;;21.20;99.90;;;;;;5094476;28;20275;-75
2021/05/24 08:19:11;;;;;;;1.95;1.73;;;19.80;99.90;;;;;;5094376;28;20209;-73
2021/05/24 08:21:39;;;;;;;2.40;1.80;;;18.60;99.90;;;;;;5094142;28;20213;-71
2021/05/24 08:24:07;;;;;;;1.92;1.70;;;18.00;99.90;;;;;;5093907;28;20213;-71
2021/05/24 08:26:34;;;;;;;2.08;1.65;;;17.80;99.90;;;;;;5094413;28;20266;-74
2021/05/24 08:29:00;;;;;;;1.95;1.38;;;17.50;99.90;;;;;;5094226;28;20229;-73
2021/05/24 08:31:27;;;;;;;7.18;1.80;;;17.20;99.90;;;;;;5093950;28;20349;-73
2021/05/24 08:33:54;;;;;;;3.10;0.90;;;16.80;99.90;;;;;;5093976;28;20208;-77
2021/05/24 08:36:20;;;;;;;3.90;2.00;;;16.70;99.90;;;;;;5094026;28;20201;-77
2021/05/24 08:38:47;;;;;;;4.57;2.33;;;16.50;99.90;;;;;;5093894;28;20669;-75
2021/05/24 08:41:15;;;;;;;2.75;1.67;;;16.50;99.90;;;;;;5094022;28;20201;-73
2021/05/24 08:43:41;;;;;;;1.98;1.10;;;16.50;99.90;;;;;;5093673;28;20251;-77
2021/05/24 08:46:08;;;;;;;2.42;1.45;;;16.50;99.90;;;;;;5093865;28;20212;-71
2021/05/24 08:48:36;;;;;;;4.63;1.20;;;16.50;99.90;;;;;;5093922;28;20236;-73
2021/05/24 08:51:03;;;;;;;1.92;1.40;;;16.70;99.90;;;;;;5093395;28;20657;-76
2021/05/24 08:53:31;;;;;;;1.73;1.15;;;16.70;99.90;;;;;;5093531;28;20202;-76
2021/05/24 08:55:58;;;;;;;4.57;1.42;;;16.60;99.90;;;;;;5093690;28;20288;-74
2021/05/24 08:58:24;;;;;;;3.72;1.65;;;16.50;99.90;;;;;;5093417;28;20576;-78
2021/05/24 09:00:51;;;;;;;2.50;1.20;;;16.40;99.90;;;;;;5093444;28;20262;-75
2021/05/24 09:03:19;;;;;;;4.10;1.17;;;16.30;99.90;;;;;;5093486;28;20206;-74
2021/05/24 09:05:47;;;;;;;3.80;1.13;;;16.40;99.90;;;;;;5093192;28;20259;-76
2021/05/24 09:08:14;;;;;;;4.53;1.42;;;16.50;99.90;;;;;;5093493;28;20267;-76
2021/05/24 09:10:42;;;;;;;2.63;1.42;;;16.40;99.90;;;;;;5093425;28;20253;-74
2021/05/24 09:13:10;;;;;;;6.55;2.00;;;16.40;99.90;;;;;;5093097;28;20255;-74
2021/05/24 09:15:38;;;;;;;1.83;0.95;;;16.60;99.90;;;;;;5093387;28;20677;-73
2021/05/24 09:18:07;;;;;;;2.70;1.05;;;16.60;99.90;;;;;;5093760;28;20296;-74
2021/05/24 09:20:36;;;;;;;2.53;0.93;;;16.50;99.90;;;;;;5093230;28;20655;-72
2021/05/24 09:23:19;;;;;;;1.52;1.30;;;16.30;99.90;;;;;;5093208;28;20206;-73
2021/05/24 09:26:02;;;;;;;3.35;1.60;;;16.10;99.90;;;;;;5092838;28;20217;-72
2021/05/24 09:28:48;;;;;;;3.55;1.35;;;16.00;99.90;;;;;;5092177;28;20230;-71
2021/05/24 09:31:17;;;;;;;2.10;1.48;;;15.80;99.90;;;;;;5092845;28;20214;-71
2021/05/24 09:33:46;;;;;;;4.53;1.08;;;15.70;99.90;;;;;;5092721;28;20231;-70
2021/05/24 09:36:13;;;;;;;4.88;1.77;;;15.80;99.90;;;;;;5092858;28;20202;-70
2021/05/24 09:38:43;;;;;;;2.25;1.05;;;15.70;99.90;;;;;;5092743;28;20198;-70
2021/05/24 09:41:11;;;;;;;2.83;1.05;;;15.80;99.90;;;;;;5092616;28;20204;-70
2021/05/24 09:43:39;;;;;;;2.15;1.40;;;15.80;99.90;;;;;;5092951;28;20202;-70
2021/05/24 09:46:11;;;;;;;3.78;1.05;;;16.00;99.90;;;;;;5093058;28;20202;-70
2021/05/24 09:48:38;;;;;;;3.30;1.08;;;16.00;99.90;;;;;;5092598;28;20621;-73
2021/05/24 09:51:06;;;;;;;2.45;1.02;;;15.90;99.90;;;;;;5092705;28;20228;-73
2021/05/24 09:53:33;;;;;;;3.15;1.10;;;15.70;99.90;;;;;;5092604;28;20206;-73
2021/05/24 09:56:06;;;;;;;1.17;1.05;;;15.30;99.90;;;;;;5092348;28;20228;-73
2021/05/24 09:58:33;;;;;;;3.85;1.17;;;15.30;99.90;;;;;;5092509;28;20258;-75
2021/05/24 10:01:13;;;;;;;2.33;1.30;;;15.30;99.90;;;;;;5092161;28;20301;-71
2021/05/24 10:03:41;;;;;;;0.88;0.85;;;15.20;99.90;;;;;;5092269;28;20354;-74
2021/05/24 10:06:08;;;;;;;1.80;1.30;;;15.30;99.90;;;;;;5092526;28;20197;-72
2021/05/24 10:08:35;;;;;;;2.00;1.42;;;15.40;99.90;;;;;;5091971;28;20240;-72
2021/05/24 10:11:02;;;;;;;2.45;0.98;;;15.20;99.90;;;;;;5092094;28;20680;-74
2021/05/24 10:13:30;;;;;;;3.22;0.85;;;15.20;99.90;;;;;;5092107;28;20681;-71
2021/05/24 10:16:01;;;;;;;3.60;1.20;;;15.20;99.90;;;;;;5092185;28;20608;-73
2021/05/24 10:18:29;;;;;;;1.98;1.33;;;15.00;99.90;;;;;;5091944;28;20201;-77
2021/05/24 10:20:57;;;;;;;2.53;1.38;;;14.80;99.90;;;;;;5091827;28;20469;-75
2021/05/24 10:23:24;;;;;;;1.27;1.10;;;14.60;99.90;;;;;;5092200;28;20213;-68
2021/05/24 10:25:53;;;;;;;1.90;1.45;;;14.70;99.90;;;;;;5091641;28;20214;-69
2021/05/24 10:28:22;;;;;;;2.15;1.35;;;14.90;99.90;;;;;;5091784;28;20229;-75
2021/05/24 10:30:50;;;;;;;4.13;1.35;;;15.00;99.90;;;;;;5091775;28;20251;-72
2021/05/24 10:33:16;;;;;;;1.90;1.27;;;14.90;99.90;;;;;;5091725;28;20202;-72
2021/05/24 10:35:44;;;;;;;1.20;0.82;;;14.80;99.90;;;;;;5091792;28;20212;-71
2021/05/24 10:38:35;;;;;;;2.55;1.40;;;14.60;99.90;;;;;;5092215;28;20353;-69
2021/05/24 10:41:06;;;;;;;2.42;1.35;;;14.60;99.90;;;;;;5081321;28;20338;-72
2021/05/24 10:43:41;;;;;;;1.83;1.17;;;14.40;99.90;;;;;;5091720;28;20366;-69
2021/05/24 10:46:35;;;;;;;2.58;1.35;;;14.30;99.90;;;;;;5091894;28;20587;-71
2021/05/24 10:49:14;;;;;;;2.05;1.38;;;14.60;99.90;;;;;;5091502;28;20719;-67
2021/05/24 10:51:58;;;;;;;4.47;2.80;;;15.00;99.90;;;;;;5091920;28;20206;-71
2021/05/24 10:54:26;;;;;;;1.75;1.15;;;15.20;99.90;;;;;;5091670;28;20197;-68
2021/05/24 10:57:17;;;;;;;2.25;0.90;;;15.20;99.90;;;;;;5091605;28;20707;-74
2021/05/24 10:59:52;;;;;;;2.38;1.33;;;15.20;99.90;;;;;;5091756;28;20213;-71
2021/05/24 11:02:30;;;;;;;1.63;1.20;;;14.90;99.90;;;;;;5091447;28;20618;-72
2021/05/24 11:04:58;;;;;;;2.38;1.30;;;14.70;99.90;;;;;;5091496;28;20205;-72
2021/05/24 11:07:28;;;;;;;1.17;0.95;;;14.80;99.90;;;;;;5091340;28;20294;-75
2021/05/24 11:10:14;;;;;;;1.25;1.00;;;14.70;99.90;;;;;;5091428;28;20374;-68
2021/05/24 11:12:42;;;;;;;2.45;1.10;;;14.70;99.90;;;;;;5091944;28;20208;-72
2021/05/24 11:15:10;;;;;;;4.65;1.58;;;14.80;99.90;;;;;;5095405;28;20593;-72
2021/05/24 11:18:17;;;;;;;2.67;1.50;;;14.80;99.90;;;;;;5095517;28;20338;-68
2021/05/24 11:20:48;;;;;;;4.28;1.88;;;15.10;99.90;;;;;;5095545;28;20201;-72
2021/05/24 11:23:32;;;;;;;1.90;1.13;;;15.10;99.90;;;;;;5095471;28;20296;-71
2021/05/24 11:26:28;;;;;;;3.50;1.30;;;15.10;99.90;;;;;;5095004;28;20220;-70
2021/05/24 11:28:58;;;;;;;9.52;1.60;;;15.30;99.90;;;;;;5095038;28;20703;-71
2021/05/24 11:31:29;;;;;;;2.33;1.20;;;15.60;99.90;;;;;;5095245;28;20295;-68
2021/05/24 11:33:58;;;;;;;3.20;1.75;;;15.70;99.90;;;;;;5095015;28;20572;-68
2021/05/24 11:36:50;;;;;;;2.22;0.93;;;15.70;99.90;;;;;;5095201;28;20280;-68
2021/05/24 11:39:19;;;;;;;5.22;2.17;;;15.70;99.90;;;;;;5095296;28;20279;-70
2021/05/24 11:41:51;;;;;;;3.60;1.65;;;15.70;99.90;;;;;;5095283;28;20208;-69
2021/05/24 11:44:17;;;;;;;4.18;1.35;;;16.00;99.90;;;;;;5094859;28;20243;-67
2021/05/24 11:46:46;;;;;;;5.03;2.00;;;16.40;99.90;;;;;;5095373;28;20213;-72
2021/05/24 11:49:14;;;;;;;2.63;1.33;;;16.50;99.90;;;;;;5095237;28;20233;-70
2021/05/24 11:51:42;;;;;;;4.10;2.00;;;16.30;99.90;;;;;;5094732;28;20684;-71
2021/05/24 11:54:10;;;;;;;3.10;1.50;;;16.00;99.90;;;;;;5094830;28;20197;-70
2021/05/24 11:56:39;;;;;;;2.28;1.67;;;16.00;99.90;;;;;;5094573;28;20251;-74
2021/05/24 11:59:07;;;;;;;2.13;1.17;;;15.90;99.90;;;;;;5094952;28;20201;-73
2021/05/24 12:01:35;;;;;;;4.78;1.60;;;15.80;99.90;;;;;;5094552;28;20201;-75
2021/05/24 12:04:09;;;;;;;3.50;1.35;;;15.70;99.90;;;;;;5094556;28;20565;-76
2021/05/24 12:06:45;;;;;;;4.22;1.77;;;15.60;99.90;;;;;;5094389;28;20760;-70
2021/05/24 12:09:13;;;;;;;5.15;1.63;;;15.70;99.90;;;;;;5094435;28;20225;-69
2021/05/24 12:11:57;;;;;;;3.88;2.42;;;15.80;99.90;;;;;;5094521;28;20206;-68
2021/05/24 12:14:24;;;;;;;2.00;1.38;;;16.20;99.90;;;;;;5094528;28;20213;-68
2021/05/24 12:16:51;;;;;;;2.85;1.52;;;16.30;99.90;;;;;;5094360;28;20228;-72
2021/05/24 12:19:23;;;;;;;4.25;1.90;;;16.40;99.90;;;;;;5094550;28;20215;-71
2021/05/24 12:21:51;;;;;;;3.60;1.45;;;16.30;99.90;;;;;;5094176;28;20235;-69
2021/05/24 12:24:19;;;;;;;5.47;2.53;;;16.20;99.90;;;;;;5093693;28;20210;-69
2021/05/24 12:26:48;;;;;;;2.45;1.92;;;16.20;99.90;;;;;;5094108;28;20205;-69
2021/05/24 12:29:23;;;;;;;2.63;1.67;;;16.30;99.90;;;;;;5094409;28;20312;-68
2021/05/24 12:31:53;;;;;;;3.60;1.58;;;16.00;99.90;;;;;;5094061;28;20208;-70
2021/05/24 12:34:25;;;;;;;5.80;2.03;;;16.10;99.90;;;;;;5094031;28;20201;-70
2021/05/24 12:36:55;;;;;;;5.88;1.88;;;16.20;99.90;;;;;;5093945;28;20255;-74
2021/05/24 12:39:24;;;;;;;6.22;1.80;;;16.40;99.90;;;;;;5093908;28;20206;-71
2021/05/24 12:41:51;;;;;;;5.97;1.70;;;16.50;99.90;;;;;;5093846;28;20201;-70
2021/05/24 12:44:23;;;;;;;7.90;2.22;;;16.50;99.90;;;;;;5094117;28;20206;-74
2021/05/24 12:46:51;;;;;;;4.93;1.90;;;16.50;99.90;;;;;;5093968;28;20259;-74
2021/05/24 12:49:20;;;;;;;2.95;1.65;;;16.70;99.90;;;;;;5094076;28;20233;-72
2021/05/24 12:51:57;;;;;;;7.00;1.95;;;16.50;99.90;;;;;;5093971;28;20292;-71
2021/05/24 12:54:24;;;;;;;3.65;1.60;;;16.20;99.90;;;;;;5093566;28;20240;-73